Time;durP1;ratioP1;P1;durP2;ratioP2;P2;SDS_P1;SDS_P2;PMS_P1;PMS_P2;Temp;Humidity;BMP_temperature;BMP_pressure;BME280_temperature;BME280_humidity;BME280_pressure;Samples;Min_cycle;Max_cycle;Signal;HPM_P1;HPM_P2
2023/06/19 00:00:17;;;;;;;;;;;;;;;;;;5077079;28;19960;-65
2023/06/19 00:02:43;;;;;;;;;;;;;;;;;;5077115;28;20420;-67
2023/06/19 00:05:09;;;;;;;;;;;;;;;;;;5076898;28;19975;-67
2023/06/19 00:07:35;;;;;;;;;;;;;;;;;;5076704;28;19956;-67
2023/06/19 00:10:01;;;;;;;;;;;;;;;;;;5076639;28;19956;-67
2023/06/19 00:12:27;;;;;;;;;;;;;;;;;;5076557;28;19955;-67
2023/06/19 00:14:53;;;;;;;;;;;;;;;;;;5076810;28;19955;-67
2023/06/19 00:17:19;;;;;;;;;;;;;;;;;;5076457;28;20101;-65
2023/06/19 00:19:45;;;;;;;;;;;;;;;;;;5076717;28;19962;-67
2023/06/19 00:22:11;;;;;;;;;;;;;;;;;;5076425;28;20313;-66
2023/06/19 00:24:36;;;;;;;;;;;;;;;;;;5076305;28;19963;-65
2023/06/19 00:27:02;;;;;;;;;;;;;;;;;;5076612;28;20018;-66
2023/06/19 00:29:28;;;;;;;;;;;;;;;;;;5076511;28;19963;-67
2023/06/19 00:31:54;;;;;;;;;;;;;;;;;;5076610;28;20045;-67
2023/06/19 00:34:20;;;;;;;;;;;;;;;;;;5076130;28;19971;-68
2023/06/19 00:36:46;;;;;;;;;;;;;;;;;;5076111;28;19959;-66
2023/06/19 00:39:12;;;;;;;;;;;;;;;;;;5076155;28;20004;-66
2023/06/19 00:41:38;;;;;;;;;;;;;;;;;;5076121;28;20415;-66
2023/06/19 00:44:04;;;;;;;;;;;;;;;;;;5076020;28;20083;-65
2023/06/19 00:46:30;;;;;;;;;;;;;;;;;;5075922;28;20353;-66
2023/06/19 00:48:56;;;;;;;;;;;;;;;;;;5076435;28;19959;-65
2023/06/19 00:51:22;;;;;;;;;;;;;;;;;;5076176;28;19992;-66
2023/06/19 00:53:48;;;;;;;;;;;;;;;;;;5075837;28;19956;-66
2023/06/19 00:56:15;;;;;;;;;;;;;;;;;;5076331;28;20444;-67
2023/06/19 00:58:41;;;;;;;;;;;;;;;;;;5076082;28;20440;-65
2023/06/19 01:01:07;;;;;;;;;;;;;;;;;;5075655;28;19956;-65
2023/06/19 01:03:33;;;;;;;;;;;;;;;;;;5075949;28;19955;-65
2023/06/19 01:05:59;;;;;;;;;;;;;;;;;;5075760;28;19975;-64
2023/06/19 01:08:24;;;;;;;;;;;;;;;;;;5075544;28;19955;-66
2023/06/19 01:10:50;;;;;;;;;;;;;;;;;;5075461;28;19963;-66
2023/06/19 01:13:16;;;;;;;;;;;;;;;;;;5075751;28;20004;-66
2023/06/19 01:15:42;;;;;;;;;;;;;;;;;;5075399;28;19960;-65
2023/06/19 01:18:11;;;;;;;;;;;;;;;;;;5075666;28;19955;-66
2023/06/19 01:20:37;;;;;;;;;;;;;;;;;;5075598;28;20336;-67
2023/06/19 01:23:02;;;;;;;;;;;;;;;;;;5075827;28;19956;-65
2023/06/19 01:25:29;;;;;;;;;;;;;;;;;;5075425;28;19983;-66
2023/06/19 01:27:55;;;;;;;;;;;;;;;;;;5075468;28;19956;-65
2023/06/19 01:30:21;;;;;;;;;;;;;;;;;;5075096;28;19982;-64
2023/06/19 01:32:47;;;;;;;;;;;;;;;;;;5075322;28;20413;-65
2023/06/19 01:35:13;;;;;;;;;;;;;;;;;;5074970;28;19971;-66
2023/06/19 01:37:39;;;;;;;;;;;;;;;;;;5075541;28;20394;-67
2023/06/19 01:40:04;;;;;;;;;;;;;;;;;;5075245;28;20010;-66
2023/06/19 01:42:30;;;;;;;;;;;;;;;;;;5074594;28;20451;-67
2023/06/19 01:44:56;;;;;;;;;;;;;;;;;;5074555;28;19980;-64
2023/06/19 01:47:22;;;;;;;;;;;;;;;;;;5074813;28;20414;-67
2023/06/19 01:49:48;;;;;;;;;;;;;;;;;;5075245;28;19955;-65
2023/06/19 01:52:14;;;;;;;;;;;;;;;;;;5074965;28;19955;-66
2023/06/19 01:54:40;;;;;;;;;;;;;;;;;;5074605;28;19955;-66
2023/06/19 01:57:06;;;;;;;;;;;;;;;;;;5074578;28;19960;-65
2023/06/19 01:59:31;;;;;;;;;;;;;;;;;;5074543;28;19955;-67
2023/06/19 02:01:57;;;;;;;;;;;;;;;;;;5074792;28;19959;-68
2023/06/19 02:04:23;;;;;;;;;;;;;;;;;;5074742;28;20042;-67
2023/06/19 02:06:49;;;;;;;;;;;;;;;;;;5074917;28;19981;-67
2023/06/19 02:09:15;;;;;;;;;;;;;;;;;;5074362;28;19960;-66
2023/06/19 02:11:41;;;;;;;;;;;;;;;;;;5074659;28;19986;-66
2023/06/19 02:14:07;;;;;;;;;;;;;;;;;;5074239;28;20432;-67
2023/06/19 02:16:33;;;;;;;;;;;;;;;;;;5074220;28;19962;-66
2023/06/19 02:19:00;;;;;;;;;;;;;;;;;;5074159;28;20310;-65
2023/06/19 02:21:26;;;;;;;;;;;;;;;;;;5074170;28;19959;-67
2023/06/19 02:23:52;;;;;;;;;;;;;;;;;;5074085;28;19956;-66
2023/06/19 02:26:18;;;;;;;;;;;;;;;;;;5074225;28;20037;-66
2023/06/19 02:28:43;;;;;;;;;;;;;;;;;;5073928;28;19959;-66
2023/06/19 02:31:09;;;;;;;;;;;;;;;;;;5074010;28;19956;-65
2023/06/19 02:33:35;;;;;;;;;;;;;;;;;;5074126;28;19991;-65
2023/06/19 02:36:01;;;;;;;;;;;;;;;;;;5073855;28;19960;-65
2023/06/19 02:38:29;;;;;;;;;;;;;;;;;;5074416;28;20050;-66
2023/06/19 02:40:57;;;;;;;;;;;;;;;;;;5074162;28;19955;-67
2023/06/19 02:43:23;;;;;;;;;;;;;;;;;;5073954;28;20094;-66
2023/06/19 02:45:49;;;;;;;;;;;;;;;;;;5073728;28;20428;-67
2023/06/19 02:48:19;;;;;;;;;;;;;;;;;;5074020;28;19959;-65
2023/06/19 02:50:45;;;;;;;;;;;;;;;;;;5074320;28;20042;-66
2023/06/19 02:53:11;;;;;;;;;;;;;;;;;;5073700;28;19998;-66
2023/06/19 02:55:37;;;;;;;;;;;;;;;;;;5072719;28;19967;-67
2023/06/19 02:58:03;;;;;;;;;;;;;;;;;;5073957;28;19959;-65
2023/06/19 03:00:29;;;;;;;;;;;;;;;;;;5073614;28;20046;-67
2023/06/19 03:02:54;;;;;;;;;;;;;;;;;;5073873;28;20076;-66
2023/06/19 03:05:20;;;;;;;;;;;;;;;;;;5073494;28;19975;-65
2023/06/19 03:07:46;;;;;;;;;;;;;;;;;;5073557;28;20448;-66
2023/06/19 03:10:13;;;;;;;;;;;;;;;;;;5073741;28;20054;-66
2023/06/19 03:12:39;;;;;;;;;;;;;;;;;;5071917;28;19960;-64
2023/06/19 03:15:05;;;;;;;;;;;;;;;;;;5073754;28;19978;-65
2023/06/19 03:17:31;;;;;;;;;;;;;;;;;;5073741;28;20005;-67
2023/06/19 03:19:57;;;;;;;;;;;;;;;;;;5073474;28;20480;-67
2023/06/19 03:22:23;;;;;;;;;;;;;;;;;;5073793;28;19956;-65
2023/06/19 03:24:49;;;;;;;;;;;;;;;;;;5073383;28;20050;-67
2023/06/19 03:27:15;;;;;;;;;;;;;;;;;;5073373;28;20050;-64
2023/06/19 03:29:41;;;;;;;;;;;;;;;;;;5073347;28;19955;-66
2023/06/19 03:32:06;;;;;;;;;;;;;;;;;;5073579;28;19959;-66
2023/06/19 03:34:32;;;;;;;;;;;;;;;;;;5073501;28;19971;-67
2023/06/19 03:36:58;;;;;;;;;;;;;;;;;;5073266;28;19962;-65
2023/06/19 03:39:24;;;;;;;;;;;;;;;;;;5073268;28;19956;-65
2023/06/19 03:41:50;;;;;;;;;;;;;;;;;;5073808;28;19955;-65
2023/06/19 03:44:16;;;;;;;;;;;;;;;;;;5073010;28;20132;-66
2023/06/19 03:46:42;;;;;;;;;;;;;;;;;;5073343;28;20021;-66
2023/06/19 03:49:09;;;;;;;;;;;;;;;;;;5073656;28;19960;-67
2023/06/19 03:51:35;;;;;;;;;;;;;;;;;;5073487;28;19962;-67
2023/06/19 03:54:01;;;;;;;;;;;;;;;;;;5073078;28;19959;-66
2023/06/19 03:56:27;;;;;;;;;;;;;;;;;;5073643;28;19963;-66
2023/06/19 03:58:53;;;;;;;;;;;;;;;;;;5073041;28;19962;-66
2023/06/19 04:01:18;;;;;;;;;;;;;;;;;;5073336;28;19956;-67
2023/06/19 04:03:44;;;;;;;;;;;;;;;;;;5073032;28;20034;-67
2023/06/19 04:06:10;;;;;;;;;;;;;;;;;;5074008;28;19979;-66
2023/06/19 04:08:36;;;;;;;;;;;;;;;;;;5076682;28;20421;-67
2023/06/19 04:11:02;;;;;;;;;;;;;;;;;;5076895;28;20333;-67
2023/06/19 04:13:28;;;;;;;;;;;;;;;;;;5076581;28;20048;-66
2023/06/19 04:15:54;;;;;;;;;;;;;;;;;;5076778;28;19959;-64
2023/06/19 04:18:20;;;;;;;;;;;;;;;;;;5076505;28;20402;-66
2023/06/19 04:20:46;;;;;;;;;;;;;;;;;;5076457;28;19955;-66
2023/06/19 04:23:12;;;;;;;;;;;;;;;;;;5076715;28;19956;-64
2023/06/19 04:25:38;;;;;;;;;;;;;;;;;;5076627;28;20463;-66
2023/06/19 04:28:04;;;;;;;;;;;;;;;;;;5076321;28;19955;-67
2023/06/19 04:30:30;;;;;;;;;;;;;;;;;;5076831;28;19956;-67
2023/06/19 04:32:56;;;;;;;;;;;;;;;;;;5076582;28;19959;-66
2023/06/19 04:35:23;;;;;;;;;;;;;;;;;;5076396;28;20528;-66
2023/06/19 04:37:49;;;;;;;;;;;;;;;;;;5076232;28;19955;-67
2023/06/19 04:40:15;;;;;;;;;;;;;;;;;;5076382;28;20422;-66
2023/06/19 04:42:41;;;;;;;;;;;;;;;;;;5076168;28;19956;-64
2023/06/19 04:45:07;;;;;;;;;;;;;;;;;;5076306;28;19975;-66
2023/06/19 04:47:33;;;;;;;;;;;;;;;;;;5076190;28;19959;-66
2023/06/19 04:49:59;;;;;;;;;;;;;;;;;;5076423;28;20084;-66
2023/06/19 04:52:24;;;;;;;;;;;;;;;;;;5076186;28;19955;-65
2023/06/19 04:54:50;;;;;;;;;;;;;;;;;;5076086;28;19987;-66
2023/06/19 04:57:16;;;;;;;;;;;;;;;;;;5076072;28;19967;-65
2023/06/19 04:59:43;;;;;;;;;;;;;;;;;;5076314;28;19956;-65
2023/06/19 05:02:09;;;;;;;;;;;;;;;;;;5075778;28;19956;-66
2023/06/19 05:04:35;;;;;;;;;;;;;;;;;;5075968;28;19955;-64
2023/06/19 05:07:01;;;;;;;;;;;;;;;;;;5075566;28;19979;-66
2023/06/19 05:09:27;;;;;;;;;;;;;;;;;;5075813;28;20325;-67
2023/06/19 05:11:53;;;;;;;;;;;;;;;;;;5075795;28;19991;-66
2023/06/19 05:14:19;;;;;;;;;;;;;;;;;;5075479;28;19998;-65
2023/06/19 05:16:45;;;;;;;;;;;;;;;;;;5075444;28;20001;-65
2023/06/19 05:19:12;;;;;;;;;;;;;;;;;;5074728;28;19955;-65
2023/06/19 05:21:38;;;;;;;;;;;;;;;;;;5073758;28;19966;-65
2023/06/19 05:24:04;;;;;;;;;;;;;;;;;;5075567;28;19955;-67
2023/06/19 05:26:29;;;;;;;;;;;;;;;;;;5075158;28;19975;-66
2023/06/19 05:28:55;;;;;;;;;;;;;;;;;;5075177;28;19994;-66
2023/06/19 05:31:21;;;;;;;;;;;;;;;;;;5075148;28;19962;-65
2023/06/19 05:33:47;;;;;;;;;;;;;;;;;;5075281;28;19962;-66
2023/06/19 05:36:13;;;;;;;;;;;;;;;;;;5075032;28;20420;-67
2023/06/19 05:38:39;;;;;;;;;;;;;;;;;;5075022;28;19955;-65
2023/06/19 05:41:06;;;;;;;;;;;;;;;;;;5075200;28;19959;-67
2023/06/19 05:43:32;;;;;;;;;;;;;;;;;;5074697;28;19992;-65
2023/06/19 05:46:02;;;;;;;;;;;;;;;;;;5074992;28;19976;-66
2023/06/19 05:48:28;;;;;;;;;;;;;;;;;;5075086;28;20038;-66
2023/06/19 05:50:54;;;;;;;;;;;;;;;;;;5075233;28;20003;-66
2023/06/19 05:53:20;;;;;;;;;;;;;;;;;;5075184;28;20415;-65
2023/06/19 05:55:46;;;;;;;;;;;;;;;;;;5074884;28;19970;-66
2023/06/19 05:58:12;;;;;;;;;;;;;;;;;;5074575;28;20453;-67
2023/06/19 06:00:37;;;;;;;;;;;;;;;;;;5074725;28;19956;-66
2023/06/19 06:03:03;;;;;;;;;;;;;;;;;;5074492;28;20306;-67
2023/06/19 06:05:29;;;;;;;;;;;;;;;;;;5074349;28;19982;-65
2023/06/19 06:07:55;;;;;;;;;;;;;;;;;;5074687;28;19955;-66
2023/06/19 06:10:21;;;;;;;;;;;;;;;;;;5074358;28;19955;-66
2023/06/19 06:12:47;;;;;;;;;;;;;;;;;;5074339;28;19956;-67
2023/06/19 06:15:13;;;;;;;;;;;;;;;;;;5074569;28;20337;-64
2023/06/19 06:17:39;;;;;;;;;;;;;;;;;;5074253;28;19956;-65
2023/06/19 06:20:12;;;;;;;;;;;;;;;;;;5074430;28;19968;-67
2023/06/19 06:22:37;;;;;;;;;;;;;;;;;;5074189;28;20421;-67
2023/06/19 06:25:04;;;;;;;;;;;;;;;;;;5074558;28;19955;-64
2023/06/19 06:27:30;;;;;;;;;;;;;;;;;;5074070;28;19962;-65
2023/06/19 06:29:56;;;;;;;;;;;;;;;;;;5073823;28;20425;-67
2023/06/19 06:32:22;;;;;;;;;;;;;;;;;;5074518;28;19956;-65
2023/06/19 06:34:47;;;;;;;;;;;;;;;;;;5073820;28;19975;-67
2023/06/19 06:37:16;;;;;;;;;;;;;;;;;;5074160;28;20038;-65
2023/06/19 06:39:41;;;;;;;;;;;;;;;;;;5074182;28;19963;-65
2023/06/19 06:42:07;;;;;;;;;;;;;;;;;;5073790;28;19959;-67
2023/06/19 06:44:33;;;;;;;;;;;;;;;;;;5073456;28;20003;-65
2023/06/19 06:46:59;;;;;;;;;;;;;;;;;;5073704;28;19975;-66
2023/06/19 06:49:25;;;;;;;;;;;;;;;;;;5074272;28;19991;-65
2023/06/19 06:51:51;;;;;;;;;;;;;;;;;;5073642;28;19956;-65
2023/06/19 06:54:17;;;;;;;;;;;;;;;;;;5072873;28;19967;-70
2023/06/19 06:56:45;;;;;;;;;;;;;;;;;;5072289;28;20586;-66
2023/06/19 06:59:11;;;;;;;;;;;;;;;;;;5073211;28;19965;-62
2023/06/19 07:01:37;;;;;;;;;;;;;;;;;;5073418;28;19963;-66
2023/06/19 07:04:03;;;;;;;;;;;;;;;;;;5073269;28;19963;-68
2023/06/19 07:06:29;;;;;;;;;;;;;;;;;;5073545;28;19983;-64
2023/06/19 07:08:55;;;;;;;;;;;;;;;;;;5072315;28;19963;-65
2023/06/19 07:11:21;;;;;;;;;;;;;;;;;;5072977;28;19964;-67
2023/06/19 07:13:47;;;;;;;;;;;;;;;;;;5073781;28;19986;-66
2023/06/19 07:16:13;;;;;;;;;;;;;;;;;;5073445;28;19962;-66
2023/06/19 07:18:40;;;;;;;;;;;;;;;;;;5072741;28;19964;-65
2023/06/19 07:21:06;;;;;;;;;;;;;;;;;;5073189;28;19967;-65
2023/06/19 07:23:32;;;;;;;;;;;;;;;;;;5073725;28;20473;-68
2023/06/19 07:25:58;;;;;;;;;;;;;;;;;;5072289;28;19976;-67
2023/06/19 07:28:24;;;;;;;;;;;;;;;;;;5072714;28;20318;-75
2023/06/19 07:30:52;;;;;;;;;;;;;;;;;;5071296;28;19963;-67
2023/06/19 07:33:18;;;;;;;;;;;;;;;;;;5071391;28;20433;-70
2023/06/19 07:35:43;;;;;;;;;;;;;;;;;;5071579;28;19980;-67
2023/06/19 07:38:09;;;;;;;;;;;;;;;;;;5072279;28;19960;-69
2023/06/19 07:40:35;;;;;;;;;;;;;;;;;;5072763;28;20483;-68
2023/06/19 07:43:01;;;;;;;;;;;;;;;;;;5076601;28;20025;-68
2023/06/19 07:45:27;;;;;;;;;;;;;;;;;;5076559;28;20334;-71
2023/06/19 07:47:53;;;;;;;;;;;;;;;;;;5076623;28;19970;-71
2023/06/19 07:50:19;;;;;;;;;;;;;;;;;;5076447;28;19960;-72
2023/06/19 07:52:45;;;;;;;;;;;;;;;;;;5075857;28;19960;-67
2023/06/19 07:55:11;;;;;;;;;;;;;;;;;;5076149;28;20372;-68
2023/06/19 07:57:37;;;;;;;;;;;;;;;;;;5072794;28;19963;-68
2023/06/19 08:00:07;;;;;;;;;;;;;;;;;;5076226;28;19963;-68
2023/06/19 08:02:33;;;;;;;;;;;;;;;;;;5075707;28;19960;-68
2023/06/19 08:04:59;;;;;;;;;;;;;;;;;;5072064;28;19960;-70
2023/06/19 08:07:25;;;;;;;;;;;;;;;;;;5075760;28;20050;-68
2023/06/19 08:09:51;;;;;;;;;;;;;;;;;;5076250;28;19963;-69
2023/06/19 08:12:17;;;;;;;;;;;;;;;;;;5076705;28;20441;-67
2023/06/19 08:14:43;;;;;;;;;;;;;;;;;;5076222;28;20552;-71
2023/06/19 08:17:08;;;;;;;;;;;;;;;;;;5074198;28;19966;-71
2023/06/19 08:19:34;;;;;;;;;;;;;;;;;;5067265;28;20417;-70
2023/06/19 08:22:00;;;;;;;;;;;;;;;;;;5077061;28;19958;-72
2023/06/19 08:24:26;;;;;;;;;;;;;;;;;;5074285;28;20432;-68
2023/06/19 08:26:52;;;;;;;;;;;;;;;;;;5076059;28;20041;-70
2023/06/19 08:29:18;;;;;;;;;;;;;;;;;;5069978;28;19971;-66
2023/06/19 08:31:44;;;;;;;;;;;;;;;;;;5076549;28;19955;-63
2023/06/19 08:34:10;;;;;;;;;;;;;;;;;;5075245;28;19983;-64
2023/06/19 08:36:36;;;;;;;;;;;;;;;;;;5071412;28;20350;-63
2023/06/19 08:39:02;;;;;;;;;;;;;;;;;;5074784;28;19970;-64
2023/06/19 08:41:28;;;;;;;;;;;;;;;;;;5075676;28;20437;-63
2023/06/19 08:43:54;;;;;;;;;;;;;;;;;;5067278;28;20019;-62
2023/06/19 08:46:20;;;;;;;;;;;;;;;;;;5066248;28;19979;-66
2023/06/19 08:48:45;;;;;;;;;;;;;;;;;;5064276;28;19959;-69
2023/06/19 08:51:11;;;;;;;;;;;;;;;;;;5076076;28;19971;-67
2023/06/19 08:53:37;;;;;;;;;;;;;;;;;;5075399;28;19991;-67
2023/06/19 08:56:03;;;;;;;;;;;;;;;;;;5074790;28;19964;-67
2023/06/19 08:58:29;;;;;;;;;;;;;;;;;;5075802;28;19963;-67
2023/06/19 09:00:55;;;;;;;;;;;;;;;;;;5075037;28;20029;-65
2023/06/19 09:03:21;;;;;;;;;;;;;;;;;;5075216;28;20054;-66
2023/06/19 09:05:50;;;;;;;;;;;;;;;;;;5074892;28;20076;-65
2023/06/19 09:08:16;;;;;;;;;;;;;;;;;;5075661;28;19955;-68
2023/06/19 09:10:42;;;;;;;;;;;;;;;;;;5075270;28;20437;-69
2023/06/19 09:13:08;;;;;;;;;;;;;;;;;;5075191;28;20500;-68
2023/06/19 09:15:34;;;;;;;;;;;;;;;;;;5074968;28;19971;-66
2023/06/19 09:18:00;;;;;;;;;;;;;;;;;;5075047;28;20049;-65
2023/06/19 09:20:26;;;;;;;;;;;;;;;;;;5072812;28;19960;-66
2023/06/19 09:22:52;;;;;;;;;;;;;;;;;;5074994;28;20063;-66
2023/06/19 09:25:18;;;;;;;;;;;;;;;;;;5074710;28;19979;-66
2023/06/19 09:27:44;;;;;;;;;;;;;;;;;;5074594;28;19963;-66
2023/06/19 09:30:09;;;;;;;;;;;;;;;;;;5065886;28;19970;-67
2023/06/19 09:32:35;;;;;;;;;;;;;;;;;;5074838;28;20334;-69
2023/06/19 09:35:02;;;;;;;;;;;;;;;;;;5074615;28;20032;-67
2023/06/19 09:37:28;;;;;;;;;;;;;;;;;;5074412;28;19963;-63
2023/06/19 09:39:54;;;;;;;;;;;;;;;;;;5075116;28;20046;-64
2023/06/19 09:42:20;;;;;;;;;;;;;;;;;;5074159;28;19967;-65
2023/06/19 09:44:46;;;;;;;;;;;;;;;;;;5074231;28;19991;-66
2023/06/19 09:47:16;;;;;;;;;;;;;;;;;;5074147;28;19985;-65
2023/06/19 09:49:42;;;;;;;;;;;;;;;;;;5073517;28;19963;-63
2023/06/19 09:52:08;;;;;;;;;;;;;;;;;;5072013;28;20005;-65
2023/06/19 09:54:34;;;;;;;;;;;;;;;;;;5074057;28;19994;-63
2023/06/19 09:57:02;;;;;;;;;;;;;;;;;;5074189;28;19974;-63
2023/06/19 09:59:28;;;;;;;;;;;;;;;;;;5073955;28;19991;-66
2023/06/19 10:01:54;;;;;;;;;;;;;;;;;;5073791;28;20341;-65
2023/06/19 10:04:20;;;;;;;;;;;;;;;;;;5070555;28;20052;-67
2023/06/19 10:06:46;;;;;;;;;;;;;;;;;;5072684;28;19980;-66
2023/06/19 10:09:12;;;;;;;;;;;;;;;;;;5074286;28;19967;-68
2023/06/19 10:11:38;;;;;;;;;;;;;;;;;;5073590;28;19960;-66
2023/06/19 10:14:04;;;;;;;;;;;;;;;;;;5073957;28;19964;-67
2023/06/19 10:16:30;;;;;;;;;;;;;;;;;;5072963;28;20050;-70
2023/06/19 10:18:56;;;;;;;;;;;;;;;;;;5074083;28;19966;-67
2023/06/19 10:21:22;;;;;;;;;;;;;;;;;;5068434;28;19959;-69
2023/06/19 10:23:47;;;;;;;;;;;;;;;;;;5070583;28;19960;-70
2023/06/19 10:26:13;;;;;;;;;;;;;;;;;;5073508;28;20015;-65
2023/06/19 10:28:40;;;;;;;;;;;;;;;;;;5069537;28;19959;-66
2023/06/19 10:31:06;;;;;;;;;;;;;;;;;;5073535;28;19963;-65
2023/06/19 10:33:32;;;;;;;;;;;;;;;;;;5073991;28;20441;-66
2023/06/19 10:35:59;;;;;;;;;;;;;;;;;;5074006;28;19966;-65
2023/06/19 10:38:25;;;;;;;;;;;;;;;;;;5072660;28;19956;-66
2023/06/19 10:40:51;;;;;;;;;;;;;;;;;;5072738;28;19963;-64
2023/06/19 10:43:17;;;;;;;;;;;;;;;;;;5072413;28;20457;-66
2023/06/19 10:45:44;;;;;;;;;;;;;;;;;;5072408;28;20078;-66
2023/06/19 10:48:09;;;;;;;;;;;;;;;;;;5072556;28;19955;-65
2023/06/19 10:50:35;;;;;;;;;;;;;;;;;;5073697;28;20328;-66
2023/06/19 10:53:01;;;;;;;;;;;;;;;;;;5073703;28;20443;-65
2023/06/19 10:55:27;;;;;;;;;;;;;;;;;;5073574;28;19960;-64
2023/06/19 10:57:53;;;;;;;;;;;;;;;;;;5073695;28;20050;-64
2023/06/19 11:00:19;;;;;;;;;;;;;;;;;;5073948;28;19954;-64
2023/06/19 11:02:45;;;;;;;;;;;;;;;;;;5072131;28;20337;-64
2023/06/19 11:05:11;;;;;;;;;;;;;;;;;;5073577;28;19959;-66
2023/06/19 11:07:38;;;;;;;;;;;;;;;;;;5073908;28;19967;-63
2023/06/19 11:10:04;;;;;;;;;;;;;;;;;;5073590;28;20420;-66
2023/06/19 11:12:30;;;;;;;;;;;;;;;;;;5073855;28;19983;-64
2023/06/19 11:14:56;;;;;;;;;;;;;;;;;;5073420;28;20337;-66
2023/06/19 11:17:22;;;;;;;;;;;;;;;;;;5072979;28;19999;-64
2023/06/19 11:19:47;;;;;;;;;;;;;;;;;;5074072;28;20414;-64
2023/06/19 11:22:13;;;;;;;;;;;;;;;;;;5073712;28;19962;-66
2023/06/19 11:24:39;;;;;;;;;;;;;;;;;;5073659;28;19961;-63
2023/06/19 11:27:05;;;;;;;;;;;;;;;;;;5073301;28;19979;-66
2023/06/19 11:29:32;;;;;;;;;;;;;;;;;;5073683;28;20374;-66
2023/06/19 11:31:58;;;;;;;;;;;;;;;;;;5073372;28;19995;-65
2023/06/19 11:34:24;;;;;;;;;;;;;;;;;;5073255;28;20033;-66
2023/06/19 11:36:50;;;;;;;;;;;;;;;;;;5073588;28;19956;-66
2023/06/19 11:39:16;;;;;;;;;;;;;;;;;;5073287;28;19960;-64
2023/06/19 11:41:42;;;;;;;;;;;;;;;;;;5073523;28;20326;-63
2023/06/19 11:44:09;;;;;;;;;;;;;;;;;;5073095;28;20169;-64
2023/06/19 11:46:35;;;;;;;;;;;;;;;;;;5073486;28;19982;-66
2023/06/19 11:49:01;;;;;;;;;;;;;;;;;;5073148;28;19959;-66
2023/06/19 11:51:27;;;;;;;;;;;;;;;;;;5074234;28;19959;-66
2023/06/19 11:53:53;;;;;;;;;;;;;;;;;;5073096;28;19955;-64
2023/06/19 11:56:19;;;;;;;;;;;;;;;;;;5073176;28;19997;-63
2023/06/19 11:58:45;;;;;;;;;;;;;;;;;;5073381;28;20004;-66
2023/06/19 12:01:11;;;;;;;;;;;;;;;;;;5073147;28;19956;-65
2023/06/19 12:03:37;;;;;;;;;;;;;;;;;;5073331;28;19959;-66
2023/06/19 12:06:02;;;;;;;;;;;;;;;;;;5072909;28;20326;-66
2023/06/19 12:08:28;;;;;;;;;;;;;;;;;;5072981;28;20005;-64
2023/06/19 12:10:54;;;;;;;;;;;;;;;;;;5073547;28;20374;-63
2023/06/19 12:13:20;;;;;;;;;;;;;;;;;;5073199;28;19956;-66
2023/06/19 12:15:46;;;;;;;;;;;;;;;;;;5073146;28;19955;-64
2023/06/19 12:18:12;;;;;;;;;;;;;;;;;;5072851;28;19987;-63
2023/06/19 12:20:38;;;;;;;;;;;;;;;;;;5072942;28;19962;-66
2023/06/19 12:23:04;;;;;;;;;;;;;;;;;;5073135;28;20054;-65
2023/06/19 12:25:30;;;;;;;;;;;;;;;;;;5071284;28;19974;-66
2023/06/19 12:27:56;;;;;;;;;;;;;;;;;;5074659;28;20379;-65
2023/06/19 12:30:21;;;;;;;;;;;;;;;;;;5076021;28;20054;-65
2023/06/19 12:32:48;;;;;;;;;;;;;;;;;;5076530;28;19956;-67
2023/06/19 12:35:14;;;;;;;;;;;;;;;;;;5074914;28;19980;-67
2023/06/19 12:37:40;;;;;;;;;;;;;;;;;;5075748;28;19970;-65
2023/06/19 12:40:09;;;;;;;;;;;;;;;;;;5076136;28;20495;-66
2023/06/19 12:42:35;;;;;;;;;;;;;;;;;;5075804;28;19963;-66
2023/06/19 12:45:01;;;;;;;;;;;;;;;;;;5075727;28;19967;-68
2023/06/19 12:47:27;;;;;;;;;;;;;;;;;;5075477;28;19963;-65
2023/06/19 12:49:53;;;;;;;;;;;;;;;;;;5075167;28;19960;-65
2023/06/19 12:52:19;;;;;;;;;;;;;;;;;;5075856;28;19964;-66
2023/06/19 12:54:45;;;;;;;;;;;;;;;;;;5076022;28;19984;-64
2023/06/19 12:57:11;;;;;;;;;;;;;;;;;;5074836;28;19971;-64
2023/06/19 12:59:37;;;;;;;;;;;;;;;;;;5075189;28;20006;-67
2023/06/19 13:02:02;;;;;;;;;;;;;;;;;;5075349;28;19963;-65
2023/06/19 13:04:28;;;;;;;;;;;;;;;;;;5075359;28;19994;-65
2023/06/19 13:06:54;;;;;;;;;;;;;;;;;;5075610;28;19976;-65
2023/06/19 13:09:20;;;;;;;;;;;;;;;;;;5074947;28;19970;-65
2023/06/19 13:11:46;;;;;;;;;;;;;;;;;;5075250;28;19970;-64
2023/06/19 13:14:12;;;;;;;;;;;;;;;;;;5075247;28;19963;-67
2023/06/19 13:16:38;;;;;;;;;;;;;;;;;;5075407;28;20322;-69
2023/06/19 13:19:04;;;;;;;;;;;;;;;;;;5070043;28;20053;-66
2023/06/19 13:21:30;;;;;;;;;;;;;;;;;;5062114;28;20002;-67
2023/06/19 13:23:55;;;;;;;;;;;;;;;;;;5065391;28;19960;-67
2023/06/19 13:26:21;;;;;;;;;;;;;;;;;;5074604;28;19986;-70
2023/06/19 13:28:47;;;;;;;;;;;;;;;;;;5074530;28;20395;-67
2023/06/19 13:31:13;;;;;;;;;;;;;;;;;;5074976;28;20005;-68
2023/06/19 13:33:39;;;;;;;;;;;;;;;;;;5074767;28;19959;-68
2023/06/19 13:36:05;;;;;;;;;;;;;;;;;;5074796;28;20341;-69
2023/06/19 13:38:31;;;;;;;;;;;;;;;;;;5072745;28;20003;-65
2023/06/19 13:40:57;;;;;;;;;;;;;;;;;;5071916;28;20042;-67
2023/06/19 13:43:23;;;;;;;;;;;;;;;;;;5073472;28;19995;-72
2023/06/19 13:45:49;;;;;;;;;;;;;;;;;;5073750;28;20342;-75
2023/06/19 13:48:15;;;;;;;;;;;;;;;;;;5074221;28;19963;-70
2023/06/19 13:50:40;;;;;;;;;;;;;;;;;;5073795;28;20054;-69
2023/06/19 13:53:06;;;;;;;;;;;;;;;;;;5072244;28;20468;-74
2023/06/19 13:55:32;;;;;;;;;;;;;;;;;;5073732;28;19956;-71
2023/06/19 13:57:58;;;;;;;;;;;;;;;;;;5073694;28;19966;-69
2023/06/19 14:00:24;;;;;;;;;;;;;;;;;;5073684;28;20002;-69
2023/06/19 14:02:50;;;;;;;;;;;;;;;;;;5072931;28;19960;-68
2023/06/19 14:05:16;;;;;;;;;;;;;;;;;;5069881;28;19962;-68
2023/06/19 14:07:42;;;;;;;;;;;;;;;;;;5054531;28;19956;-68
2023/06/19 14:10:08;;;;;;;;;;;;;;;;;;5055899;28;20371;-67
2023/06/19 14:12:34;;;;;;;;;;;;;;;;;;5060116;28;20018;-70
2023/06/19 14:15:00;;;;;;;;;;;;;;;;;;5054594;28;19966;-69
2023/06/19 14:17:26;;;;;;;;;;;;;;;;;;5058545;28;19959;-70
2023/06/19 14:19:52;;;;;;;;;;;;;;;;;;5074263;28;20403;-72
2023/06/19 14:22:18;;;;;;;;;;;;;;;;;;5074217;28;19960;-73
2023/06/19 14:24:44;;;;;;;;;;;;;;;;;;5074440;28;20000;-72
2023/06/19 14:27:09;;;;;;;;;;;;;;;;;;5074021;28;19975;-73
2023/06/19 14:29:35;;;;;;;;;;;;;;;;;;5074087;28;20408;-71
2023/06/19 14:32:02;;;;;;;;;;;;;;;;;;5074027;28;20001;-72
2023/06/19 14:34:28;;;;;;;;;;;;;;;;;;5074551;28;19971;-71
2023/06/19 14:36:54;;;;;;;;;;;;;;;;;;5060642;28;20389;-72
2023/06/19 14:39:19;;;;;;;;;;;;;;;;;;5070533;28;20063;-70
2023/06/19 14:41:45;;;;;;;;;;;;;;;;;;5073893;28;20002;-70
2023/06/19 14:44:11;;;;;;;;;;;;;;;;;;5073425;28;20009;-73
2023/06/19 14:46:39;;;;;;;;;;;;;;;;;;5074329;28;19979;-71
2023/06/19 14:49:05;;;;;;;;;;;;;;;;;;5072679;28;20050;-73
2023/06/19 14:51:32;;;;;;;;;;;;;;;;;;5073433;28;20305;-73
2023/06/19 14:53:58;;;;;;;;;;;;;;;;;;5073671;28;19967;-73
2023/06/19 14:56:24;;;;;;;;;;;;;;;;;;5072292;28;19960;-69
2023/06/19 14:58:50;;;;;;;;;;;;;;;;;;5073270;28;20013;-70
2023/06/19 15:01:16;;;;;;;;;;;;;;;;;;5073944;28;20402;-70
2023/06/19 15:03:42;;;;;;;;;;;;;;;;;;5073912;28;19960;-71
2023/06/19 15:06:08;;;;;;;;;;;;;;;;;;5072177;28;20069;-69
2023/06/19 15:08:35;;;;;;;;;;;;;;;;;;5072852;28;19989;-70
2023/06/19 15:11:04;;;;;;;;;;;;;;;;;;5073328;28;19963;-71
2023/06/19 15:13:30;;;;;;;;;;;;;;;;;;5072119;28;20104;-69
2023/06/19 15:15:56;;;;;;;;;;;;;;;;;;5070102;28;20054;-71
2023/06/19 15:18:22;;;;;;;;;;;;;;;;;;5072378;28;20502;-74
2023/06/19 15:20:48;;;;;;;;;;;;;;;;;;5072797;28;20050;-73
2023/06/19 15:23:14;;;;;;;;;;;;;;;;;;5073445;28;19993;-73
2023/06/19 15:25:40;;;;;;;;;;;;;;;;;;5072076;28;19984;-73
2023/06/19 15:28:06;;;;;;;;;;;;;;;;;;5073974;28;20474;-73
2023/06/19 15:30:32;;;;;;;;;;;;;;;;;;5073370;28;20483;-73
2023/06/19 15:32:58;;;;;;;;;;;;;;;;;;5073353;28;19982;-73
2023/06/19 15:35:23;;;;;;;;;;;;;;;;;;5073227;28;19972;-73
2023/06/19 15:37:49;;;;;;;;;;;;;;;;;;5073527;28;19955;-72
2023/06/19 15:40:16;;;;;;;;;;;;;;;;;;5073233;28;20002;-73
2023/06/19 15:42:42;;;;;;;;;;;;;;;;;;5071600;28;20429;-73
2023/06/19 15:45:08;;;;;;;;;;;;;;;;;;5073685;28;19981;-73
2023/06/19 15:47:34;;;;;;;;;;;;;;;;;;5073239;28;19956;-73
2023/06/19 15:50:00;;;;;;;;;;;;;;;;;;5071940;28;19960;-73
2023/06/19 15:52:26;;;;;;;;;;;;;;;;;;5073947;28;20064;-73
2023/06/19 15:54:52;;;;;;;;;;;;;;;;;;5073129;28;19955;-73
2023/06/19 15:57:18;;;;;;;;;;;;;;;;;;5073151;28;20341;-73
2023/06/19 15:59:47;;;;;;;;;;;;;;;;;;5073089;28;19954;-72
2023/06/19 16:02:13;;;;;;;;;;;;;;;;;;5074255;28;20410;-72
2023/06/19 16:04:39;;;;;;;;;;;;;;;;;;5076835;28;19962;-73
2023/06/19 16:07:05;;;;;;;;;;;;;;;;;;5076725;28;19975;-72
2023/06/19 16:09:32;;;;;;;;;;;;;;;;;;5076752;28;19956;-72
2023/06/19 16:11:57;;;;;;;;;;;;;;;;;;5077011;28;19959;-73
2023/06/19 16:14:23;;;;;;;;;;;;;;;;;;5075370;28;19965;-73
2023/06/19 16:16:49;;;;;;;;;;;;;;;;;;5076586;28;20024;-72
2023/06/19 16:19:15;;;;;;;;;;;;;;;;;;5077120;28;19955;-73
2023/06/19 16:21:41;;;;;;;;;;;;;;;;;;5076487;28;19956;-73
2023/06/19 16:24:07;;;;;;;;;;;;;;;;;;5077112;28;19963;-73
2023/06/19 16:26:34;;;;;;;;;;;;;;;;;;5076437;28;20062;-72
2023/06/19 16:29:00;;;;;;;;;;;;;;;;;;5076751;28;20002;-73
2023/06/19 16:31:25;;;;;;;;;;;;;;;;;;5076376;28;19999;-72
2023/06/19 16:33:52;;;;;;;;;;;;;;;;;;5076514;28;20054;-72
2023/06/19 16:36:19;;;;;;;;;;;;;;;;;;5076887;28;19970;-72